createdAt,value
2023-03-06T00:02:25.313Z,69.77
2023-03-06T00:04:54.950Z,70.66
2023-03-06T00:07:21.611Z,70.28
2023-03-06T00:09:48.338Z,70.51
2023-03-06T00:12:14.989Z,70.96
2023-03-06T00:14:41.575Z,70.25
2023-03-06T00:17:12.251Z,71.03
2023-03-06T00:19:39.237Z,71.22
2023-03-06T00:22:06.136Z,70.99
2023-03-06T00:24:33.143Z,70.69
2023-03-06T00:26:59.987Z,70.99
2023-03-06T00:29:28.095Z,70.73
2023-03-06T00:32:15.773Z,70.91
2023-03-06T00:34:42.618Z,70.27
2023-03-06T00:37:09.165Z,70.94
2023-03-06T00:39:36.119Z,70.91
2023-03-06T00:42:04.194Z,70.39
2023-03-06T00:44:31.672Z,71.49
2023-03-06T00:47:00.609Z,71.19
2023-03-06T00:49:27.215Z,71.05
2023-03-06T00:51:53.873Z,71.27
2023-03-06T00:54:20.538Z,71.17
2023-03-06T00:56:47.296Z,70.89
2023-03-06T00:59:14.012Z,70.30
2023-03-06T01:01:40.687Z,70.74
2023-03-06T01:04:07.296Z,71.68
2023-03-06T01:06:34.400Z,71.18
2023-03-06T01:09:03.846Z,70.77
2023-03-06T01:11:30.539Z,70.92
2023-03-06T01:13:57.316Z,71.02
2023-03-06T01:16:24.039Z,71.09
2023-03-06T01:18:51.668Z,71.02
2023-03-06T01:21:18.802Z,70.11
2023-03-06T01:23:46.081Z,70.33
2023-03-06T01:26:13.080Z,70.66
2023-03-06T01:28:40.650Z,71.02
2023-03-06T01:31:17.578Z,71.00
2023-03-06T01:33:44.427Z,70.70
2023-03-06T01:36:15.030Z,71.15
2023-03-06T01:38:42.208Z,70.92
2023-03-06T01:41:12.561Z,71.14
2023-03-06T01:43:42.829Z,71.47
2023-03-06T01:46:28.941Z,70.58
2023-03-06T01:48:58.294Z,70.81
2023-03-06T01:51:27.291Z,71.50
2023-03-06T01:53:58.691Z,71.60
2023-03-06T01:56:26.239Z,71.21
2023-03-06T01:59:00.473Z,71.50
2023-03-06T02:01:29.333Z,71.54
2023-03-06T02:03:56.165Z,71.81
2023-03-06T02:06:22.880Z,71.79
2023-03-06T02:08:51.201Z,72.03
2023-03-06T02:11:22.578Z,71.65
2023-03-06T02:13:49.984Z,71.99
2023-03-06T02:16:20.189Z,70.88
2023-03-06T02:18:47.266Z,71.69
2023-03-06T02:21:20.427Z,71.21
2023-03-06T02:23:50.203Z,71.88
2023-03-06T02:26:18.162Z,71.15
2023-03-06T02:28:44.869Z,71.02
2023-03-06T02:31:35.763Z,71.32
2023-03-06T02:34:02.512Z,71.45
2023-03-06T02:36:29.957Z,71.36
2023-03-06T02:38:57.256Z,71.68
2023-03-06T02:41:24.488Z,71.44
2023-03-06T02:43:54.514Z,71.37
2023-03-06T02:46:21.234Z,71.12
2023-03-06T02:48:47.981Z,71.61
2023-03-06T02:51:19.939Z,71.72
2023-03-06T02:53:46.771Z,72.09
2023-03-06T02:56:13.454Z,71.41
2023-03-06T02:58:41.582Z,71.77
2023-03-06T03:01:08.602Z,71.81
2023-03-06T03:03:35.434Z,72.33
2023-03-06T03:06:03.703Z,71.75
2023-03-06T03:08:38.930Z,72.02
2023-03-06T03:11:05.739Z,71.40
2023-03-06T03:13:42.246Z,71.57
2023-03-06T03:16:15.496Z,71.84
2023-03-06T03:18:44.676Z,71.80
2023-03-06T03:21:15.251Z,72.55
2023-03-06T03:23:41.920Z,72.71
2023-03-06T03:26:08.594Z,71.94
2023-03-06T03:28:37.133Z,72.15
2023-03-06T03:31:08.961Z,72.38
2023-03-06T03:33:36.050Z,72.74
2023-03-06T03:36:04.610Z,72.29
2023-03-06T03:38:33.738Z,72.75
2023-03-06T03:41:04.091Z,72.42
2023-03-06T03:43:31.786Z,72.95
2023-03-06T03:45:59.613Z,72.56
2023-03-06T03:48:28.543Z,72.91
2023-03-06T03:51:02.107Z,73.04
2023-03-06T03:53:31.936Z,72.64
2023-03-06T03:55:59.496Z,72.76
2023-03-06T03:58:30.177Z,72.54
2023-03-06T04:00:57.079Z,72.57
2023-03-06T04:03:23.647Z,72.55
2023-03-06T04:05:50.336Z,72.29
2023-03-06T04:08:16.975Z,72.10
2023-03-06T04:10:46.478Z,72.41
2023-03-06T04:13:17.131Z,72.57
2023-03-06T04:15:46.579Z,72.87
2023-03-06T04:18:13.424Z,71.95
2023-03-06T04:20:40.433Z,72.42
2023-03-06T04:23:07.222Z,72.63
2023-03-06T04:25:33.935Z,72.55
2023-03-06T04:28:02.633Z,72.78
2023-03-06T04:30:30.011Z,73.19
2023-03-06T04:32:57.384Z,73.89
2023-03-06T04:35:24.140Z,73.03
2023-03-06T04:38:01.242Z,73.05
2023-03-06T04:40:31.099Z,73.56
2023-03-06T04:42:58.629Z,74.55
2023-03-06T04:45:25.865Z,74.14
2023-03-06T04:47:52.520Z,73.90
2023-03-06T04:50:19.788Z,73.72
2023-03-06T04:52:46.645Z,74.31
2023-03-06T04:55:14.501Z,73.51
2023-03-06T04:57:41.907Z,72.89
2023-03-06T05:00:10.338Z,73.52
2023-03-06T05:02:36.935Z,73.51
2023-03-06T05:05:04.413Z,73.81
2023-03-06T05:07:31.112Z,73.87
2023-03-06T05:09:57.632Z,74.13
2023-03-06T05:12:24.211Z,74.98
2023-03-06T05:14:50.824Z,74.53
2023-03-06T05:17:18.384Z,74.33
2023-03-06T05:19:45.326Z,74.69
2023-03-06T05:22:11.990Z,74.86
2023-03-06T05:24:38.514Z,74.59
2023-03-06T05:27:05.180Z,75.63
2023-03-06T05:29:31.746Z,75.24
2023-03-06T05:32:01.345Z,74.79
2023-03-06T05:34:29.329Z,74.24
2023-03-06T05:36:55.907Z,74.22
2023-03-06T05:39:22.490Z,74.48
2023-03-06T05:41:49.036Z,75.03
2023-03-06T05:44:17.843Z,76.34
2023-03-06T05:46:44.402Z,76.73
2023-03-06T05:49:11.065Z,75.94
2023-03-06T05:51:37.634Z,75.99
2023-03-06T05:54:04.534Z,75.54
2023-03-06T05:56:33.474Z,76.57
2023-03-06T05:59:02.189Z,77.75
2023-03-06T06:01:29.877Z,76.25
2023-03-06T06:03:56.650Z,77.13
2023-03-06T06:06:26.413Z,77.03
2023-03-06T06:08:53.075Z,75.57
2023-03-06T06:11:20.880Z,74.11
2023-03-06T06:13:51.632Z,77.31
2023-03-06T06:16:19.755Z,75.33
2023-03-06T06:18:54.766Z,76.57
2023-03-06T06:21:21.638Z,76.30
2023-03-06T06:23:48.398Z,77.62
2023-03-06T06:26:15.770Z,76.51
2023-03-06T06:28:44.474Z,76.89
2023-03-06T06:31:12.433Z,76.85
2023-03-06T06:33:39.608Z,76.52
2023-03-06T06:36:14.490Z,79.08
2023-03-06T06:38:41.149Z,78.53
2023-03-06T06:43:54.688Z,77.65
2023-03-06T06:47:02.704Z,79.21
2023-03-06T06:49:08.222Z,76.14
2023-03-06T06:51:35.029Z,76.75
2023-03-06T06:54:05.669Z,74.67
2023-03-06T06:56:32.911Z,76.00
2023-03-06T06:59:15.566Z,77.56
2023-03-06T07:01:43.296Z,76.72
2023-03-06T07:04:11.709Z,76.97
2023-03-06T07:06:38.395Z,77.08
2023-03-06T07:09:05.755Z,77.34
2023-03-06T07:11:32.439Z,75.57
2023-03-06T07:13:59.347Z,76.10
2023-03-06T07:16:28.224Z,74.98
2023-03-06T07:18:55.016Z,77.46
2023-03-06T07:21:21.827Z,78.68
2023-03-06T07:23:48.685Z,79.26
2023-03-06T07:26:17.593Z,79.10
2023-03-06T07:28:52.321Z,77.95
2023-03-06T07:31:21.586Z,78.81
2023-03-06T07:33:57.679Z,78.56
2023-03-06T07:36:24.428Z,78.01
2023-03-06T07:38:52.899Z,75.64
2023-03-06T07:41:22.350Z,75.10
2023-03-06T07:43:49.424Z,76.40
2023-03-06T07:46:16.828Z,77.54
2023-03-06T07:48:45.765Z,77.51
2023-03-06T07:51:18.946Z,75.90
2023-03-06T07:53:46.188Z,73.93
2023-03-06T07:56:12.828Z,74.57
2023-03-06T07:58:40.881Z,76.48
2023-03-06T08:01:09.213Z,73.97
2023-03-06T08:03:41.257Z,72.95
2023-03-06T08:06:12.704Z,72.73
2023-03-06T08:08:40.790Z,75.62
2023-03-06T08:11:08.109Z,76.55
2023-03-06T08:13:38.517Z,73.94
2023-03-06T08:16:06.062Z,72.50
2023-03-06T08:18:33.262Z,74.31
2023-03-06T08:21:03.000Z,76.02
2023-03-06T08:23:32.406Z,74.57
2023-03-06T08:26:00.532Z,73.50
2023-03-06T08:28:28.618Z,72.61
2023-03-06T08:30:55.801Z,73.80
2023-03-06T08:33:22.975Z,75.05
2023-03-06T08:35:49.701Z,75.28
2023-03-06T08:38:16.550Z,75.33
2023-03-06T08:40:44.027Z,75.69
2023-03-06T08:43:14.311Z,74.77
2023-03-06T08:45:41.870Z,74.01
2023-03-06T08:48:09.443Z,74.85
2023-03-06T08:50:41.250Z,75.46
2023-03-06T08:53:08.451Z,75.70
2023-03-06T08:55:39.501Z,74.95
2023-03-06T08:58:06.300Z,73.50
2023-03-06T09:00:33.657Z,73.88
2023-03-06T09:03:04.043Z,76.23
2023-03-06T09:05:31.329Z,76.57
2023-03-06T09:07:58.043Z,75.92
2023-03-06T09:10:26.010Z,76.91
2023-03-06T09:12:54.991Z,77.27
2023-03-06T09:15:23.192Z,78.17
2023-03-06T09:17:51.310Z,77.50
2023-03-06T09:20:20.366Z,78.29
2023-03-06T09:22:48.200Z,78.04
2023-03-06T09:25:17.655Z,77.04
2023-03-06T09:27:44.314Z,75.94
2023-03-06T09:30:11.595Z,76.10
2023-03-06T09:32:38.447Z,76.97
2023-03-06T09:35:08.490Z,77.10
2023-03-06T09:37:35.108Z,78.44
2023-03-06T09:40:02.058Z,78.03
2023-03-06T09:42:29.139Z,77.23
2023-03-06T09:44:58.359Z,78.10
2023-03-06T09:47:41.249Z,76.93
2023-03-06T09:50:14.063Z,75.46
2023-03-06T09:52:59.955Z,77.34
2023-03-06T09:55:31.224Z,76.56
2023-03-06T09:58:20.041Z,75.26
2023-03-06T10:00:55.281Z,74.61
2023-03-06T10:03:21.945Z,73.83
2023-03-06T10:06:01.492Z,75.31
2023-03-06T10:08:36.406Z,76.48
2023-03-06T10:11:07.655Z,77.02
2023-03-06T10:13:39.695Z,77.05
2023-03-06T10:16:22.064Z,76.64
2023-03-06T10:18:49.250Z,75.61
2023-03-06T10:21:23.121Z,74.10
2023-03-06T10:24:07.774Z,75.53
2023-03-06T10:26:40.491Z,76.33
2023-03-06T10:29:15.514Z,75.18
2023-03-06T10:31:44.752Z,74.23
2023-03-06T10:34:11.874Z,74.70
2023-03-06T10:36:38.941Z,76.15
2023-03-06T10:39:14.120Z,74.68
2023-03-06T10:41:40.815Z,75.33
2023-03-06T10:44:09.030Z,74.72
2023-03-06T10:46:37.228Z,73.98
2023-03-06T10:49:06.325Z,72.52
2023-03-06T10:51:36.167Z,74.39
2023-03-06T10:54:23.089Z,73.16
2023-03-06T10:56:49.936Z,74.31
2023-03-06T10:59:17.795Z,73.04
2023-03-06T11:01:46.241Z,74.58
2023-03-06T11:04:23.407Z,74.00
2023-03-06T11:07:04.919Z,73.22
2023-03-06T11:09:33.278Z,74.05
2023-03-06T11:12:18.381Z,74.51
2023-03-06T11:14:45.096Z,71.84
2023-03-06T11:17:32.192Z,69.24
2023-03-06T11:20:18.416Z,68.91
2023-03-06T11:23:07.274Z,69.67
2023-03-06T11:25:37.339Z,69.83
2023-03-06T11:28:11.526Z,70.21
2023-03-06T11:30:42.276Z,71.64
2023-03-06T11:33:13.803Z,71.25
2023-03-06T11:35:52.052Z,72.21
2023-03-06T11:38:37.626Z,71.78
2023-03-06T11:41:08.200Z,71.04
2023-03-06T11:43:41.394Z,70.87
2023-03-06T11:46:17.689Z,68.69
2023-03-06T11:48:49.735Z,69.90
2023-03-06T11:51:25.990Z,68.38
2023-03-06T11:53:53.789Z,66.89
2023-03-06T11:56:27.027Z,65.65
2023-03-06T11:58:53.646Z,67.86
2023-03-06T12:01:26.658Z,67.48
2023-03-06T12:04:07.308Z,70.37
2023-03-06T12:06:45.895Z,67.52
2023-03-06T12:09:12.793Z,68.88
2023-03-06T12:11:41.717Z,69.69
2023-03-06T12:14:32.744Z,71.47
2023-03-06T12:16:59.496Z,71.56
2023-03-06T12:19:46.561Z,66.92
2023-03-06T12:22:25.449Z,65.73
2023-03-06T12:25:07.909Z,66.16
2023-03-06T12:27:58.279Z,68.72
2023-03-06T12:30:33.316Z,68.62
2023-03-06T12:33:03.028Z,68.52
2023-03-06T12:35:55.073Z,69.36
2023-03-06T12:38:24.791Z,66.41
2023-03-06T12:41:02.254Z,67.07
2023-03-06T12:43:47.598Z,68.02
2023-03-06T12:46:16.651Z,66.69
2023-03-06T12:48:49.173Z,65.18
2023-03-06T12:51:20.374Z,64.08
2023-03-06T12:53:47.974Z,61.08
2023-03-06T12:56:15.728Z,62.56
2023-03-06T12:58:52.988Z,61.10
2023-03-06T13:01:24.208Z,60.48
2023-03-06T13:03:54.341Z,62.73
2023-03-06T13:06:49.868Z,62.75
2023-03-06T13:09:39.611Z,63.28
2023-03-06T13:12:21.908Z,59.34
2023-03-06T13:14:54.980Z,59.88
2023-03-06T13:17:33.165Z,60.07
2023-03-06T13:20:16.683Z,56.64
2023-03-06T13:22:45.006Z,57.84
2023-03-06T13:25:12.218Z,57.69
2023-03-06T13:27:47.453Z,58.23
2023-03-06T13:30:20.591Z,55.38
2023-03-06T13:32:49.240Z,54.85
2023-03-06T13:35:34.568Z,59.16
2023-03-06T13:38:01.929Z,56.03
2023-03-06T13:40:36.183Z,57.62
2023-03-06T13:43:09.920Z,53.66
2023-03-06T13:45:41.527Z,51.73
2023-03-06T13:48:46.256Z,48.89
2023-03-06T13:51:24.176Z,46.75
2023-03-06T13:53:53.133Z,47.22
2023-03-06T13:56:22.918Z,44.47
2023-03-06T13:59:09.408Z,42.86
2023-03-06T14:01:44.424Z,43.64
2023-03-06T14:04:27.441Z,43.68
2023-03-06T14:07:04.903Z,47.50
2023-03-06T14:09:43.171Z,44.31
2023-03-06T14:12:33.247Z,42.97
2023-03-06T14:15:04.586Z,42.05
2023-03-06T14:17:37.757Z,42.66
2023-03-06T14:20:15.605Z,45.20
2023-03-06T14:22:42.372Z,43.81
2023-03-06T14:25:15.079Z,43.61
2023-03-06T14:27:48.169Z,43.79
2023-03-06T14:30:16.971Z,41.06
2023-03-06T14:32:43.936Z,41.45
2023-03-06T14:35:27.839Z,44.78
2023-03-06T14:37:56.911Z,42.75
2023-03-06T14:40:32.192Z,42.96
2023-03-06T14:43:17.146Z,41.40
2023-03-06T14:45:49.712Z,39.08
2023-03-06T14:48:16.467Z,41.31
2023-03-06T14:50:47.298Z,40.21
2023-03-06T14:53:16.457Z,41.46
2023-03-06T14:56:02.731Z,46.09
2023-03-06T14:58:36.024Z,45.59
2023-03-06T15:01:05.292Z,46.69
2023-03-06T15:03:42.629Z,49.12
2023-03-06T15:06:20.505Z,51.09
2023-03-06T15:08:48.739Z,51.41
2023-03-06T15:11:15.403Z,49.19
2023-03-06T15:13:42.533Z,49.46
2023-03-06T15:16:24.913Z,50.40
2023-03-06T15:18:54.599Z,51.25
2023-03-06T15:21:21.930Z,53.95
2023-03-06T15:23:50.022Z,53.42
2023-03-06T15:26:28.030Z,53.12
2023-03-06T15:29:08.153Z,53.87
2023-03-06T15:31:36.744Z,52.81
2023-03-06T15:34:06.578Z,51.99
2023-03-06T15:36:37.324Z,52.36
2023-03-06T15:39:26.453Z,50.50
2023-03-06T15:41:59.452Z,51.90
2023-03-06T15:44:26.409Z,51.04
2023-03-06T15:47:06.637Z,51.57
2023-03-06T15:49:36.496Z,52.15
2023-03-06T15:52:03.114Z,52.34
2023-03-06T15:54:31.925Z,52.48
2023-03-06T15:56:59.458Z,53.04
2023-03-06T15:59:27.972Z,51.65
2023-03-06T16:01:54.677Z,51.71
2023-03-06T16:04:21.445Z,52.90
2023-03-06T16:06:48.186Z,53.81
2023-03-06T16:09:17.191Z,54.05
2023-03-06T16:11:44.944Z,54.40
2023-03-06T16:14:21.537Z,53.19
2023-03-06T16:16:51.117Z,54.09
2023-03-06T16:19:28.219Z,54.21
2023-03-06T16:21:58.131Z,54.55
2023-03-06T16:24:26.318Z,54.06
2023-03-06T16:26:53.801Z,54.85
2023-03-06T16:29:22.160Z,56.36
2023-03-06T16:31:48.958Z,56.09
2023-03-06T16:34:15.946Z,55.84
2023-03-06T16:36:42.652Z,58.23
2023-03-06T16:39:13.247Z,58.04
2023-03-06T16:41:39.884Z,58.59
2023-03-06T16:44:10.237Z,59.06
2023-03-06T16:46:41.564Z,59.25
2023-03-06T16:49:12.729Z,60.00
2023-03-06T16:51:40.483Z,60.08
2023-03-06T16:54:07.113Z,59.87
2023-03-06T16:56:36.838Z,60.01
2023-03-06T16:59:03.594Z,60.40
2023-03-06T17:01:30.340Z,60.39
2023-03-06T17:03:57.075Z,60.60
2023-03-06T17:06:25.930Z,60.50
2023-03-06T17:08:52.680Z,60.59
2023-03-06T17:11:22.258Z,61.43
2023-03-06T17:13:49.279Z,62.03
2023-03-06T17:16:16.622Z,61.74
2023-03-06T17:18:44.433Z,61.59
2023-03-06T17:21:11.282Z,62.27
2023-03-06T17:23:38.234Z,64.95
2023-03-06T17:26:09.724Z,64.00
2023-03-06T17:28:36.903Z,63.96
2023-03-06T17:31:05.326Z,64.78
2023-03-06T17:33:32.083Z,66.66
2023-03-06T17:35:59.572Z,68.49
2023-03-06T17:38:26.920Z,69.09
2023-03-06T17:40:53.769Z,68.79
2023-03-06T17:43:20.583Z,69.13
2023-03-06T17:45:47.526Z,69.55
2023-03-06T17:48:17.317Z,69.77
2023-03-06T17:50:45.873Z,70.54
2023-03-06T17:53:14.469Z,70.37
2023-03-06T17:55:41.489Z,70.46
2023-03-06T17:58:09.127Z,69.62
2023-03-06T18:00:37.557Z,69.99
2023-03-06T18:03:04.246Z,71.00
2023-03-06T18:05:30.885Z,71.37
2023-03-06T18:07:57.627Z,70.84
2023-03-06T18:10:24.818Z,70.80
2023-03-06T18:12:51.469Z,70.13
2023-03-06T18:15:18.651Z,69.77
2023-03-06T18:17:45.693Z,70.48
2023-03-06T18:20:12.521Z,69.93
2023-03-06T18:22:39.173Z,70.54
2023-03-06T18:25:09.330Z,69.88
2023-03-06T18:27:35.995Z,69.33
2023-03-06T18:30:09.576Z,69.41
2023-03-06T18:32:36.327Z,68.67
2023-03-06T18:35:02.951Z,67.71
2023-03-06T18:37:30.239Z,67.31
2023-03-06T18:39:56.979Z,68.24
2023-03-06T18:42:24.694Z,68.75
2023-03-06T18:44:51.312Z,68.75
2023-03-06T18:47:18.013Z,68.15
2023-03-06T18:49:46.348Z,68.36
2023-03-06T18:52:13.050Z,68.23
2023-03-06T18:54:39.753Z,68.28
2023-03-06T18:57:06.463Z,69.34
2023-03-06T18:59:33.317Z,68.06
2023-03-06T19:02:00.157Z,68.07
2023-03-06T19:04:27.182Z,68.90
2023-03-06T19:06:54.833Z,68.78
2023-03-06T19:09:21.548Z,69.28
2023-03-06T19:11:52.578Z,69.02
2023-03-06T19:14:21.543Z,69.14
2023-03-06T19:16:51.464Z,68.58
2023-03-06T19:19:18.189Z,69.88
2023-03-06T19:21:44.854Z,70.02
2023-03-06T19:24:14.484Z,69.96
2023-03-06T19:26:43.942Z,69.60
2023-03-06T19:29:10.602Z,68.99
2023-03-06T19:31:37.258Z,69.63
2023-03-06T19:34:04.167Z,69.14
2023-03-06T19:36:33.928Z,68.61
2023-03-06T19:39:04.697Z,69.01
2023-03-06T19:41:33.540Z,68.08
2023-03-06T19:44:02.482Z,68.28
2023-03-06T19:46:29.563Z,68.78
2023-03-06T19:49:00.486Z,68.64
2023-03-06T19:51:27.256Z,69.02
2023-03-06T19:53:53.865Z,69.62
2023-03-06T19:56:26.173Z,68.78
2023-03-06T19:58:53.056Z,70.03
2023-03-06T20:01:23.117Z,70.05
2023-03-06T20:03:50.712Z,69.68
2023-03-06T20:06:18.672Z,69.93
2023-03-06T20:08:45.813Z,69.04
2023-03-06T20:11:16.730Z,67.95
2023-03-06T20:13:47.411Z,69.84
2023-03-06T20:16:14.609Z,70.68
2023-03-06T20:18:41.226Z,70.82
2023-03-06T20:21:08.017Z,71.60
2023-03-06T20:23:34.637Z,70.83
2023-03-06T20:26:04.136Z,70.77
2023-03-06T20:28:30.752Z,71.82
2023-03-06T20:30:57.638Z,71.83
2023-03-06T20:33:26.545Z,72.83
2023-03-06T20:36:01.785Z,73.56
2023-03-06T20:38:28.575Z,72.65
2023-03-06T20:40:56.191Z,73.96
2023-03-06T20:43:23.762Z,74.79
2023-03-06T20:46:02.975Z,74.31
2023-03-06T20:48:30.052Z,74.72
2023-03-06T20:51:04.565Z,74.78
2023-03-06T20:53:35.243Z,76.32
2023-03-06T20:56:01.924Z,75.66
2023-03-06T20:58:31.735Z,74.89
2023-03-06T21:01:00.290Z,74.29
2023-03-06T21:03:29.494Z,75.30
2023-03-06T21:05:56.940Z,75.57
2023-03-06T21:08:24.145Z,74.32
2023-03-06T21:10:51.365Z,74.68
2023-03-06T21:13:19.107Z,75.00
2023-03-06T21:15:47.634Z,74.74
2023-03-06T21:18:14.738Z,74.90
2023-03-06T21:20:41.727Z,73.90
2023-03-06T21:23:09.226Z,73.16
2023-03-06T21:25:35.886Z,73.43
2023-03-06T21:28:02.593Z,73.92
2023-03-06T21:30:32.302Z,74.62
2023-03-06T21:32:58.877Z,74.11
2023-03-06T21:35:25.614Z,74.22
2023-03-06T21:37:52.293Z,74.45
2023-03-06T21:40:19.154Z,72.93
2023-03-06T21:42:45.845Z,74.04
2023-03-06T21:45:12.763Z,74.10
2023-03-06T21:47:41.008Z,74.73
2023-03-06T21:50:08.956Z,74.21
2023-03-06T21:52:35.715Z,72.77
2023-03-06T21:55:02.340Z,73.96
2023-03-06T21:57:29.109Z,72.00
2023-03-06T21:59:55.753Z,73.17
2023-03-06T22:02:22.421Z,72.99
2023-03-06T22:04:50.214Z,72.61
2023-03-06T22:07:16.924Z,71.81
2023-03-06T22:09:43.501Z,72.78
2023-03-06T22:12:10.064Z,72.67
2023-03-06T22:14:39.003Z,73.59
2023-03-06T22:17:05.569Z,72.70
2023-03-06T22:19:32.247Z,73.61
2023-03-06T22:21:58.846Z,73.85
2023-03-06T22:24:25.462Z,75.26
2023-03-06T22:26:52.030Z,75.38
2023-03-06T22:29:18.703Z,75.73
2023-03-06T22:31:45.427Z,75.24
2023-03-06T22:34:12.131Z,74.74
2023-03-06T22:36:38.820Z,74.10
2023-03-06T22:39:05.402Z,74.95
2023-03-06T22:41:32.225Z,74.42
2023-03-06T22:44:00.133Z,75.56
2023-03-06T22:46:26.896Z,74.64
2023-03-06T22:48:55.780Z,74.06
2023-03-06T22:51:22.452Z,74.13
2023-03-06T22:53:49.397Z,74.77
2023-03-06T22:56:17.390Z,75.27
2023-03-06T22:58:45.007Z,74.96
2023-03-06T23:01:22.550Z,74.22
2023-03-06T23:03:50.253Z,74.89
2023-03-06T23:06:18.429Z,75.93
2023-03-06T23:08:48.548Z,76.22
2023-03-06T23:11:17.395Z,75.13
2023-03-06T23:14:03.411Z,74.58
2023-03-06T23:16:48.622Z,75.43
2023-03-06T23:19:33.654Z,74.61
2023-03-06T23:22:18.719Z,75.17
2023-03-06T23:25:04.317Z,75.73
2023-03-06T23:27:31.415Z,75.57
2023-03-06T23:29:59.093Z,74.44
2023-03-06T23:32:26.077Z,74.02
2023-03-06T23:34:52.771Z,73.96
2023-03-06T23:37:19.477Z,73.98
2023-03-06T23:39:46.619Z,73.34
2023-03-06T23:42:13.279Z,74.11
2023-03-06T23:44:39.874Z,73.29
2023-03-06T23:47:06.707Z,74.06
2023-03-06T23:49:33.378Z,73.85
2023-03-06T23:52:00.366Z,72.55
2023-03-06T23:54:26.979Z,72.66
2023-03-06T23:56:53.641Z,73.29
2023-03-06T23:59:20.684Z,72.87
